createdAt,value
2018-10-06T00:00:34.817Z,64.50
2018-10-06T00:03:02.612Z,64.20
2018-10-06T00:05:30.426Z,63.90
2018-10-06T00:07:58.506Z,64.10
2018-10-06T00:10:26.362Z,64.50
2018-10-06T00:12:54.139Z,64.90
2018-10-06T00:15:22.683Z,64.80
2018-10-06T00:17:50.552Z,65.10
2018-10-06T00:20:18.405Z,64.50
2018-10-06T00:22:46.170Z,64.40
2018-10-06T00:25:14.034Z,64.30
2018-10-06T00:27:42.236Z,64.80
2018-10-06T00:30:10.758Z,64.70
2018-10-06T00:32:38.513Z,64.70
2018-10-06T00:35:07.213Z,64.70
2018-10-06T00:37:35.362Z,64.30
2018-10-06T00:40:03.249Z,64.60
2018-10-06T00:42:31.056Z,65.00
2018-10-06T00:44:58.963Z,65.10
2018-10-06T00:47:26.794Z,65.00
2018-10-06T00:49:55.405Z,65.10
2018-10-06T00:52:23.565Z,65.70
2018-10-06T00:54:51.663Z,66.20
2018-10-06T00:57:19.569Z,66.60
2018-10-06T00:59:47.658Z,67.60
2018-10-06T01:02:15.490Z,70.00
2018-10-06T01:04:43.260Z,72.20
2018-10-06T01:07:11.104Z,71.50
2018-10-06T01:09:38.927Z,70.90
2018-10-06T01:12:07.170Z,70.50
2018-10-06T01:14:34.992Z,69.60
2018-10-06T01:17:02.735Z,67.70
2018-10-06T01:19:30.578Z,67.40
2018-10-06T01:21:58.450Z,67.10
2018-10-06T01:24:26.201Z,67.40
2018-10-06T01:26:53.965Z,67.00
2018-10-06T01:29:21.929Z,67.20
2018-10-06T01:31:49.783Z,67.80
2018-10-06T01:34:18.172Z,68.40
2018-10-06T01:36:46.225Z,68.20
2018-10-06T01:39:14.063Z,67.70
2018-10-06T01:41:41.830Z,68.10
2018-10-06T01:44:09.613Z,68.20
2018-10-06T01:46:37.771Z,67.80
2018-10-06T01:49:05.547Z,67.50
2018-10-06T01:51:33.260Z,66.80
2018-10-06T01:54:01.146Z,66.90
2018-10-06T01:56:28.864Z,67.50
2018-10-06T01:58:56.638Z,67.50
2018-10-06T02:01:24.713Z,67.20
2018-10-06T02:03:52.435Z,67.70
2018-10-06T02:06:20.224Z,67.00
2018-10-06T02:08:47.940Z,66.80
2018-10-06T02:11:15.676Z,66.90
2018-10-06T02:13:43.679Z,67.00
2018-10-06T02:16:11.431Z,68.60
2018-10-06T02:18:39.253Z,68.50
2018-10-06T02:21:06.990Z,69.40
2018-10-06T02:23:35.117Z,67.60
2018-10-06T02:26:02.900Z,67.40
2018-10-06T02:28:30.674Z,67.70
2018-10-06T02:30:58.469Z,67.70
2018-10-06T02:33:26.192Z,67.80
2018-10-06T02:35:54.027Z,68.10
2018-10-06T02:38:21.980Z,68.50
2018-10-06T02:40:49.862Z,68.60
2018-10-06T02:43:17.774Z,67.70
2018-10-06T02:45:45.734Z,66.50
2018-10-06T02:48:13.502Z,66.90
2018-10-06T02:50:41.327Z,66.80
2018-10-06T02:53:09.154Z,66.50
2018-10-06T02:55:37.045Z,66.50
2018-10-06T02:58:04.781Z,66.60
2018-10-06T03:00:32.478Z,66.80
2018-10-06T03:03:00.440Z,67.60
2018-10-06T03:05:28.236Z,68.00
2018-10-06T03:07:55.901Z,67.90
2018-10-06T03:10:23.564Z,67.50
2018-10-06T03:12:51.576Z,67.50
2018-10-06T03:15:19.396Z,67.80
2018-10-06T03:17:47.742Z,68.40
2018-10-06T03:20:15.526Z,69.30
2018-10-06T03:22:43.299Z,69.10
2018-10-06T03:25:11.346Z,69.40
2018-10-06T03:27:39.121Z,69.90
2018-10-06T03:30:07.027Z,70.60
2018-10-06T03:32:34.893Z,70.50
2018-10-06T03:35:02.718Z,69.70
2018-10-06T03:37:30.461Z,70.20
2018-10-06T03:39:58.188Z,69.60
2018-10-06T03:42:25.913Z,68.80
2018-10-06T03:44:53.641Z,68.60
2018-10-06T03:47:21.364Z,68.50
2018-10-06T03:49:49.882Z,68.60
2018-10-06T03:52:18.067Z,69.40
2018-10-06T03:54:45.768Z,70.10
2018-10-06T03:57:13.481Z,69.90
2018-10-06T03:59:41.234Z,69.10
2018-10-06T04:02:08.929Z,68.20
2018-10-06T04:04:36.654Z,68.10
2018-10-06T04:07:04.337Z,68.40
2018-10-06T04:09:32.045Z,69.30
2018-10-06T04:11:59.730Z,69.60
2018-10-06T04:14:27.399Z,69.20
2018-10-06T04:16:55.068Z,68.80
2018-10-06T04:19:22.708Z,69.50
2018-10-06T04:21:50.645Z,68.90
2018-10-06T04:24:18.997Z,68.50
2018-10-06T04:26:46.768Z,68.10
2018-10-06T04:29:14.460Z,68.20
2018-10-06T04:31:42.129Z,68.00
2018-10-06T04:34:10.030Z,67.80
2018-10-06T04:36:38.046Z,68.30
2018-10-06T04:39:07.371Z,68.60
2018-10-06T04:41:35.180Z,69.90
2018-10-06T04:44:03.191Z,69.90
2018-10-06T04:46:30.926Z,70.00
2018-10-06T04:48:58.603Z,68.80
2018-10-06T04:51:26.533Z,68.20
2018-10-06T04:53:54.201Z,68.10
2018-10-06T04:56:22.405Z,67.50
2018-10-06T04:58:50.078Z,67.50
2018-10-06T05:01:17.820Z,68.30
2018-10-06T05:03:45.966Z,69.10
2018-10-06T05:06:13.849Z,69.70
2018-10-06T05:08:41.537Z,70.00
2018-10-06T05:11:09.289Z,69.80
2018-10-06T05:13:37.266Z,69.40
2018-10-06T05:16:05.359Z,69.00
2018-10-06T05:18:33.042Z,69.10
2018-10-06T05:21:00.705Z,69.60
2018-10-06T05:23:28.512Z,69.70
2018-10-06T05:25:56.180Z,70.70
2018-10-06T05:28:23.872Z,71.10
2018-10-06T05:30:51.808Z,71.50
2018-10-06T05:33:19.486Z,70.30
2018-10-06T05:35:47.396Z,69.90
2018-10-06T05:38:15.122Z,69.40
2018-10-06T05:40:42.930Z,70.20
2018-10-06T05:43:10.697Z,70.70
2018-10-06T05:45:38.381Z,70.10
2018-10-06T05:48:06.095Z,70.00
2018-10-06T05:50:33.840Z,70.40
2018-10-06T05:53:01.554Z,71.00
2018-10-06T05:55:29.308Z,70.50
2018-10-06T05:57:57.042Z,70.60
2018-10-06T06:00:24.796Z,69.60
2018-10-06T06:02:52.462Z,69.70
2018-10-06T06:05:20.141Z,70.40
2018-10-06T06:07:47.988Z,71.10
2018-10-06T06:10:15.704Z,71.50
2018-10-06T06:12:43.469Z,71.00
2018-10-06T06:15:11.451Z,70.70
2018-10-06T06:17:39.617Z,70.70
2018-10-06T06:20:07.373Z,70.70
2018-10-06T06:22:35.238Z,71.50
2018-10-06T06:25:03.152Z,71.80
2018-10-06T06:27:30.848Z,72.10
2018-10-06T06:29:58.546Z,72.60
2018-10-06T06:32:26.269Z,73.10
2018-10-06T06:34:54.105Z,73.80
2018-10-06T06:37:22.035Z,74.90
2018-10-06T06:39:49.784Z,75.10
2018-10-06T06:42:17.462Z,75.40
2018-10-06T06:44:45.137Z,75.10
2018-10-06T06:47:12.827Z,75.30
2018-10-06T06:49:40.536Z,75.80
2018-10-06T06:52:08.189Z,76.40
2018-10-06T06:54:35.948Z,76.60
2018-10-06T06:57:03.656Z,76.80
2018-10-06T06:59:31.312Z,76.60
2018-10-06T07:01:59.028Z,76.90
2018-10-06T07:04:26.723Z,77.10
2018-10-06T07:06:54.448Z,77.20
2018-10-06T07:09:22.133Z,77.40
2018-10-06T07:11:49.845Z,78.60
2018-10-06T07:14:17.556Z,79.50
2018-10-06T07:16:45.304Z,79.80
2018-10-06T07:19:13.013Z,79.60
2018-10-06T07:21:40.737Z,80.20
2018-10-06T07:24:09.131Z,80.60
2018-10-06T07:26:36.948Z,81.40
2018-10-06T07:29:04.679Z,80.90
2018-10-06T07:31:32.326Z,80.70
2018-10-06T07:33:59.966Z,81.40
2018-10-06T07:36:27.688Z,81.10
2018-10-06T07:38:55.484Z,81.70
2018-10-06T07:41:23.293Z,82.50
2018-10-06T07:43:50.956Z,82.90
2018-10-06T07:46:18.609Z,83.00
2018-10-06T07:48:46.467Z,82.50
2018-10-06T07:51:14.167Z,83.40
2018-10-06T07:53:41.837Z,83.10
2018-10-06T07:56:09.504Z,83.20
2018-10-06T07:58:37.208Z,83.50
2018-10-06T08:01:05.207Z,84.70
2018-10-06T08:03:33.152Z,84.60
2018-10-06T08:06:00.873Z,84.60
2018-10-06T08:08:28.562Z,84.30
2018-10-06T08:10:56.226Z,84.30
2018-10-06T08:13:23.874Z,84.30
2018-10-06T08:15:51.621Z,83.00
2018-10-06T08:18:19.499Z,80.90
2018-10-06T08:20:47.264Z,79.90
2018-10-06T08:23:14.978Z,79.30
2018-10-06T08:25:42.820Z,79.00
2018-10-06T08:28:10.499Z,78.00
2018-10-06T08:30:38.141Z,77.60
2018-10-06T08:33:06.090Z,78.20
2018-10-06T08:35:33.749Z,75.40
2018-10-06T08:38:01.440Z,73.90
2018-10-06T08:40:29.304Z,73.20
2018-10-06T08:42:57.193Z,71.90
2018-10-06T08:45:24.960Z,71.10
2018-10-06T08:47:52.673Z,70.50
2018-10-06T08:50:20.321Z,70.30
2018-10-06T08:52:48.345Z,68.90
2018-10-06T08:55:16.056Z,65.80
2018-10-06T08:57:43.707Z,65.40
2018-10-06T09:00:11.393Z,65.40
2018-10-06T09:02:39.022Z,64.50
2018-10-06T09:05:06.696Z,63.90
2018-10-06T09:07:34.360Z,63.20
2018-10-06T09:10:02.078Z,61.50
2018-10-06T09:12:29.772Z,61.70
2018-10-06T09:14:57.519Z,61.50
2018-10-06T09:17:25.129Z,60.60
2018-10-06T09:19:52.780Z,60.50
2018-10-06T09:22:20.417Z,60.10
2018-10-06T09:24:48.108Z,60.00
2018-10-06T09:27:15.940Z,59.60
2018-10-06T09:29:43.610Z,59.50
2018-10-06T09:32:11.297Z,58.20
2018-10-06T09:34:39.167Z,56.90
2018-10-06T09:37:06.855Z,56.40
2018-10-06T09:39:34.493Z,57.30
2018-10-06T09:42:02.312Z,57.30
2018-10-06T09:44:29.885Z,57.60
2018-10-06T09:46:57.590Z,57.10
2018-10-06T09:49:25.280Z,56.70
2018-10-06T09:51:52.977Z,55.40
2018-10-06T09:54:20.667Z,55.10
2018-10-06T09:56:48.333Z,54.70
2018-10-06T09:59:15.992Z,54.30
2018-10-06T10:01:49.312Z,54.00
2018-10-06T10:04:17.737Z,53.50
2018-10-06T10:06:45.579Z,53.70
2018-10-06T10:09:14.768Z,53.90
2018-10-06T10:11:42.853Z,52.40
2018-10-06T10:14:11.240Z,53.10
2018-10-06T10:16:38.930Z,52.60
2018-10-06T10:19:06.814Z,51.90
2018-10-06T10:21:34.540Z,51.40
2018-10-06T10:24:02.174Z,51.00
2018-10-06T10:26:30.160Z,51.80
2018-10-06T10:28:57.886Z,51.40
2018-10-06T10:31:25.677Z,51.80
2018-10-06T10:33:53.444Z,51.90
2018-10-06T10:36:21.233Z,52.10
2018-10-06T10:38:49.140Z,52.10
2018-10-06T10:41:16.954Z,51.70
2018-10-06T10:43:44.656Z,50.40
2018-10-06T10:46:12.392Z,50.90
2018-10-06T10:48:40.081Z,49.10
2018-10-06T10:51:07.769Z,47.20
2018-10-06T10:53:35.485Z,46.50
2018-10-06T10:56:03.163Z,47.00
2018-10-06T10:58:30.877Z,46.30
2018-10-06T11:00:58.703Z,47.10
2018-10-06T11:03:26.397Z,47.90
2018-10-06T11:05:54.404Z,47.40
2018-10-06T11:08:22.089Z,46.50
2018-10-06T11:10:49.793Z,46.70
2018-10-06T11:13:18.520Z,47.30
2018-10-06T11:15:46.229Z,46.30
2018-10-06T11:18:14.034Z,46.20
2018-10-06T11:20:41.701Z,46.00
2018-10-06T11:23:09.780Z,46.50
2018-10-06T11:25:37.682Z,45.90
2018-10-06T11:28:05.421Z,46.60
2018-10-06T11:30:33.067Z,46.70
2018-10-06T11:33:00.759Z,47.20
2018-10-06T11:35:28.455Z,47.20
2018-10-06T11:37:56.110Z,47.80
2018-10-06T11:40:23.824Z,48.30
2018-10-06T11:42:51.490Z,48.00
2018-10-06T11:45:19.265Z,48.50
2018-10-06T11:47:46.913Z,48.30
2018-10-06T11:50:14.546Z,48.40
2018-10-06T11:52:42.576Z,48.80
2018-10-06T11:55:10.232Z,48.70
2018-10-06T11:57:37.940Z,48.20
2018-10-06T12:00:06.885Z,48.40
2018-10-06T12:02:34.492Z,48.60
2018-10-06T12:05:02.212Z,48.60
2018-10-06T12:07:30.006Z,48.80
2018-10-06T12:09:57.705Z,49.00
2018-10-06T12:12:25.369Z,47.90
2018-10-06T12:14:53.037Z,47.10
2018-10-06T12:17:20.672Z,46.90
2018-10-06T12:19:48.292Z,46.50
2018-10-06T12:22:15.970Z,46.40
2018-10-06T12:24:43.636Z,46.10
2018-10-06T12:27:11.261Z,46.20
2018-10-06T12:29:38.863Z,46.60
2018-10-06T12:32:06.583Z,46.20
2018-10-06T12:34:34.303Z,46.00
2018-10-06T12:37:01.999Z,46.20
2018-10-06T12:39:29.721Z,45.30
2018-10-06T12:41:57.356Z,45.80
2018-10-06T12:44:25.036Z,46.20
2018-10-06T12:46:53.108Z,46.00
2018-10-06T12:49:20.793Z,46.10
2018-10-06T12:51:48.480Z,46.00
2018-10-06T12:54:16.590Z,46.50
2018-10-06T12:56:44.261Z,47.40
2018-10-06T12:59:12.046Z,47.20
2018-10-06T13:01:39.739Z,46.80
2018-10-06T13:04:07.404Z,46.70
2018-10-06T13:06:35.081Z,46.00
2018-10-06T13:09:02.976Z,46.50
2018-10-06T13:11:30.646Z,46.70
2018-10-06T13:13:58.340Z,45.60
2018-10-06T13:16:26.148Z,45.70
2018-10-06T13:18:53.783Z,46.00
2018-10-06T13:21:21.535Z,45.70
2018-10-06T13:23:49.254Z,45.50
2018-10-06T13:26:17.048Z,46.20
2018-10-06T13:28:44.716Z,45.90
2018-10-06T13:31:12.353Z,45.90
2018-10-06T13:33:39.972Z,46.80
2018-10-06T13:36:07.690Z,46.60
2018-10-06T13:38:36.042Z,46.20
2018-10-06T13:41:03.742Z,46.40
2018-10-06T13:43:31.435Z,46.40
2018-10-06T13:45:59.094Z,46.80
2018-10-06T13:48:26.756Z,46.40
2018-10-06T13:50:54.438Z,46.30
2018-10-06T13:53:22.144Z,46.40
2018-10-06T13:55:50.465Z,46.30
2018-10-06T13:58:18.224Z,46.20
2018-10-06T14:00:46.417Z,45.80
2018-10-06T14:03:14.149Z,45.10
2018-10-06T14:05:41.762Z,45.00
2018-10-06T14:08:09.409Z,45.00
2018-10-06T14:10:37.432Z,45.40
2018-10-06T14:13:05.112Z,45.00
2018-10-06T14:15:32.933Z,44.80
2018-10-06T14:18:00.610Z,44.80
2018-10-06T14:20:28.228Z,45.50
2018-10-06T14:22:55.889Z,44.60
2018-10-06T14:25:23.557Z,44.80
2018-10-06T14:27:51.179Z,44.50
2018-10-06T14:30:18.815Z,44.70
2018-10-06T14:32:46.689Z,45.10
2018-10-06T14:35:14.773Z,44.20
2018-10-06T14:37:42.585Z,44.80
2018-10-06T14:40:10.273Z,45.20
2018-10-06T14:42:37.916Z,45.30
2018-10-06T14:45:05.687Z,45.20
2018-10-06T14:47:33.401Z,45.50
2018-10-06T14:50:01.077Z,45.50
2018-10-06T14:52:28.753Z,45.90
2018-10-06T14:54:56.760Z,45.60
2018-10-06T14:57:24.406Z,45.60
2018-10-06T14:59:52.045Z,45.30
2018-10-06T15:02:19.784Z,45.00
2018-10-06T15:04:47.476Z,45.50
2018-10-06T15:07:15.131Z,45.60
2018-10-06T15:09:43.111Z,45.30
2018-10-06T15:12:10.768Z,46.30
2018-10-06T15:14:38.469Z,46.50
2018-10-06T15:17:06.241Z,46.00
2018-10-06T15:19:34.027Z,45.60
2018-10-06T15:22:01.697Z,45.60
2018-10-06T15:24:29.629Z,46.30
2018-10-06T15:26:57.286Z,45.90
2018-10-06T15:29:25.252Z,45.90
2018-10-06T15:31:52.944Z,45.80
2018-10-06T15:34:20.626Z,46.20
2018-10-06T15:36:48.312Z,46.80
2018-10-06T15:39:16.035Z,47.20
2018-10-06T15:41:43.684Z,47.30
2018-10-06T15:44:11.644Z,46.90
2018-10-06T15:46:39.360Z,47.10
2018-10-06T15:49:07.005Z,47.80
2018-10-06T15:51:34.709Z,48.30
2018-10-06T15:54:02.371Z,48.50
2018-10-06T15:56:30.034Z,48.60
2018-10-06T15:58:57.670Z,48.20
2018-10-06T16:01:25.320Z,48.50
2018-10-06T16:03:52.987Z,49.10
2018-10-06T16:06:20.612Z,49.70
2018-10-06T16:08:48.600Z,49.80
2018-10-06T16:11:16.240Z,50.00
2018-10-06T16:13:43.857Z,49.60
2018-10-06T16:16:11.525Z,50.00
2018-10-06T16:18:39.165Z,50.00
2018-10-06T16:21:06.889Z,50.30
2018-10-06T16:23:34.789Z,50.80
2018-10-06T16:26:02.432Z,50.60
2018-10-06T16:28:30.110Z,50.70
2018-10-06T16:30:58.436Z,51.00
2018-10-06T16:33:26.083Z,51.20
2018-10-06T16:35:53.737Z,51.50
2018-10-06T16:38:21.428Z,51.50
2018-10-06T16:40:49.116Z,51.60
2018-10-06T16:43:16.761Z,52.00
2018-10-06T16:45:44.434Z,52.40
2018-10-06T16:48:12.099Z,52.70
2018-10-06T16:50:39.936Z,53.00
2018-10-06T16:53:07.621Z,53.50
2018-10-06T16:55:35.296Z,53.60
2018-10-06T16:58:02.964Z,53.90
2018-10-06T17:00:30.669Z,53.90
2018-10-06T17:02:58.317Z,54.90
2018-10-06T17:05:25.958Z,54.40
2018-10-06T17:07:53.728Z,54.50
2018-10-06T17:10:21.328Z,54.20
2018-10-06T17:12:49.033Z,54.30
2018-10-06T17:15:16.901Z,54.40
2018-10-06T17:17:44.562Z,54.60
2018-10-06T17:20:12.529Z,54.50
2018-10-06T17:22:40.337Z,54.60
2018-10-06T17:25:08.086Z,54.70
2018-10-06T17:27:35.733Z,54.60
2018-10-06T17:30:03.688Z,54.80
2018-10-06T17:32:31.332Z,55.10
2018-10-06T17:34:59.017Z,55.20
2018-10-06T17:37:26.700Z,55.40
2018-10-06T17:39:54.404Z,55.50
2018-10-06T17:42:22.080Z,55.60
2018-10-06T17:44:49.741Z,55.80
2018-10-06T17:47:17.428Z,56.20
2018-10-06T17:49:45.371Z,56.30
2018-10-06T17:52:13.001Z,56.60
2018-10-06T17:54:40.636Z,56.80
2018-10-06T17:57:08.573Z,56.70
2018-10-06T17:59:36.237Z,57.30
2018-10-06T18:02:03.967Z,57.00
2018-10-06T18:04:31.780Z,57.40
2018-10-06T18:06:59.417Z,57.20
2018-10-06T18:09:27.053Z,56.90
2018-10-06T18:11:54.684Z,57.30
2018-10-06T18:14:22.321Z,57.10
2018-10-06T18:16:50.461Z,57.30
2018-10-06T18:19:18.119Z,58.00
2018-10-06T18:21:45.788Z,57.40
2018-10-06T18:24:13.409Z,57.70
2018-10-06T18:26:41.036Z,57.70
2018-10-06T18:29:08.730Z,57.60
2018-10-06T18:31:36.377Z,58.30
2018-10-06T18:34:03.992Z,58.30
2018-10-06T18:36:31.736Z,58.50
2018-10-06T18:38:59.343Z,58.80
2018-10-06T18:41:27.209Z,58.80
2018-10-06T18:43:54.844Z,59.10
2018-10-06T18:46:22.496Z,59.30
2018-10-06T18:48:50.137Z,59.50
2018-10-06T18:51:17.774Z,59.00
2018-10-06T18:53:45.422Z,58.90
2018-10-06T18:56:13.337Z,58.70
2018-10-06T18:58:41.039Z,59.00
2018-10-06T19:01:08.696Z,58.50
2018-10-06T19:03:36.412Z,58.70
2018-10-06T19:06:04.069Z,58.90
2018-10-06T19:08:31.717Z,59.60
2018-10-06T19:10:59.379Z,59.90
2018-10-06T19:13:27.333Z,59.90
2018-10-06T19:15:54.973Z,60.00
2018-10-06T19:18:22.880Z,60.20
2018-10-06T19:20:50.594Z,59.80
2018-10-06T19:23:18.284Z,59.80
2018-10-06T19:25:45.985Z,60.10
2018-10-06T19:28:13.720Z,59.90
2018-10-06T19:30:41.384Z,59.70
2018-10-06T19:33:09.016Z,59.60
2018-10-06T19:35:36.704Z,59.90
2018-10-06T19:38:04.340Z,60.20
2018-10-06T19:40:32.255Z,59.90
2018-10-06T19:42:59.872Z,59.70
2018-10-06T19:45:27.529Z,60.40
2018-10-06T19:47:55.206Z,61.40
2018-10-06T19:50:22.847Z,60.40
2018-10-06T19:52:50.565Z,60.80
2018-10-06T19:55:18.252Z,61.20
2018-10-06T19:57:45.877Z,61.00
2018-10-06T20:00:13.591Z,61.20
2018-10-06T20:02:41.268Z,61.20
2018-10-06T20:05:08.963Z,61.90
2018-10-06T20:07:36.613Z,61.50
2018-10-06T20:10:04.428Z,61.10
2018-10-06T20:12:32.152Z,61.70
2018-10-06T20:14:59.795Z,61.30
2018-10-06T20:17:27.452Z,61.10
2018-10-06T20:19:55.082Z,60.80
2018-10-06T20:22:22.868Z,61.40
2018-10-06T20:24:50.512Z,61.60
2018-10-06T20:27:18.229Z,62.00
2018-10-06T20:29:45.878Z,62.80
2018-10-06T20:32:13.554Z,62.20
2018-10-06T20:34:41.240Z,62.30
2018-10-06T20:37:08.945Z,62.30
2018-10-06T20:39:36.605Z,62.90
2018-10-06T20:42:04.332Z,63.10
2018-10-06T20:44:32.049Z,63.20
2018-10-06T20:46:59.716Z,63.10
2018-10-06T20:49:27.371Z,63.60
2018-10-06T20:51:55.276Z,63.50
2018-10-06T20:54:22.901Z,63.50
2018-10-06T20:56:50.921Z,62.90
2018-10-06T20:59:18.971Z,62.80
2018-10-06T21:01:46.970Z,63.00
2018-10-06T21:04:14.638Z,63.80
2018-10-06T21:06:42.303Z,63.30
2018-10-06T21:09:11.929Z,63.90
2018-10-06T21:11:39.777Z,64.00
2018-10-06T21:14:08.467Z,63.90
2018-10-06T21:16:36.654Z,63.80
2018-10-06T21:19:11.185Z,64.10
2018-10-06T21:21:38.901Z,64.00
2018-10-06T21:24:06.584Z,64.00
2018-10-06T21:26:34.511Z,64.00
2018-10-06T21:29:02.208Z,64.50
2018-10-06T21:31:29.920Z,64.80
2018-10-06T21:33:57.867Z,64.70
2018-10-06T21:36:25.621Z,64.80
2018-10-06T21:38:53.336Z,64.80
2018-10-06T21:41:20.968Z,64.80
2018-10-06T21:43:48.808Z,65.20
2018-10-06T21:46:16.670Z,65.40
2018-10-06T21:48:44.325Z,65.40
2018-10-06T21:51:12.125Z,65.90
2018-10-06T21:53:39.779Z,65.50
2018-10-06T21:56:07.501Z,65.30
2018-10-06T21:58:35.161Z,65.20
2018-10-06T22:01:10.220Z,65.30
2018-10-06T22:03:38.936Z,65.40
2018-10-06T22:06:06.923Z,65.10
2018-10-06T22:08:34.636Z,65.20
2018-10-06T22:11:02.573Z,65.30
2018-10-06T22:13:30.447Z,65.40
2018-10-06T22:15:58.172Z,66.40
2018-10-06T22:18:26.135Z,66.00
2018-10-06T22:20:54.029Z,65.60
2018-10-06T22:23:28.372Z,65.60
2018-10-06T22:25:56.085Z,66.20
2018-10-06T22:28:23.833Z,66.40
2018-10-06T22:30:51.579Z,66.30
2018-10-06T22:33:19.256Z,65.60
2018-10-06T22:35:46.987Z,66.10
2018-10-06T22:38:14.655Z,66.00
2018-10-06T22:40:42.329Z,65.60
2018-10-06T22:43:10.017Z,65.60
2018-10-06T22:45:37.676Z,65.40
2018-10-06T22:48:05.453Z,65.80
2018-10-06T22:50:33.141Z,66.20
2018-10-06T22:53:01.036Z,65.70
2018-10-06T22:55:28.810Z,64.70
2018-10-06T22:57:56.444Z,64.80
2018-10-06T23:00:24.183Z,65.60
2018-10-06T23:02:51.888Z,65.40
2018-10-06T23:05:19.599Z,65.70
2018-10-06T23:07:47.320Z,66.10
2018-10-06T23:10:15.092Z,65.60
2018-10-06T23:12:42.757Z,65.50
2018-10-06T23:15:10.474Z,65.80
2018-10-06T23:17:38.212Z,65.40
2018-10-06T23:20:05.981Z,65.80
2018-10-06T23:22:33.843Z,65.60
2018-10-06T23:25:01.539Z,65.70
2018-10-06T23:27:29.496Z,66.60
2018-10-06T23:29:57.211Z,66.40
2018-10-06T23:32:24.912Z,65.70
2018-10-06T23:34:52.609Z,65.40
2018-10-06T23:37:20.331Z,66.20
2018-10-06T23:39:48.335Z,66.30
2018-10-06T23:42:16.044Z,66.70
2018-10-06T23:44:43.740Z,65.80
2018-10-06T23:47:11.453Z,65.80
2018-10-06T23:49:39.190Z,66.60
2018-10-06T23:52:07.109Z,67.40
2018-10-06T23:54:34.752Z,67.80
2018-10-06T23:57:02.473Z,67.80
2018-10-06T23:59:30.176Z,67.50
